sensor_id;sensor_type;location;lat;lon;timestamp;pressure;altitude;pressure_sealevel;temperature;humidity
37892;BME280;45797;47.466;9.486;2024-03-17T00:03:23;96517.56;;;10.92;76.41
37892;BME280;45797;47.466;9.486;2024-03-17T00:08:44;96522.69;;;10.94;76.44
37892;BME280;45797;47.466;9.486;2024-03-17T00:14:15;96527.00;;;10.95;76.43
37892;BME280;45797;47.466;9.486;2024-03-17T00:19:38;96530.34;;;10.97;76.63
37892;BME280;45797;47.466;9.486;2024-03-17T00:24:59;96523.25;;;10.99;76.72
37892;BME280;45797;47.466;9.486;2024-03-17T00:30:20;96521.38;;;11.01;76.98
37892;BME280;45797;47.466;9.486;2024-03-17T00:35:42;96531.88;;;11.01;76.65
37892;BME280;45797;47.466;9.486;2024-03-17T00:41:04;96523.63;;;10.93;76.68
37892;BME280;45797;47.466;9.486;2024-03-17T00:46:24;96514.19;;;10.90;77.07
37892;BME280;45797;47.466;9.486;2024-03-17T00:51:45;96518.50;;;10.91;76.76
37892;BME280;45797;47.466;9.486;2024-03-17T00:57:08;96516.50;;;10.95;76.67
37892;BME280;45797;47.466;9.486;2024-03-17T01:02:29;96505.19;;;10.94;76.64
37892;BME280;45797;47.466;9.486;2024-03-17T01:08:06;96499.09;;;10.94;76.86
37892;BME280;45797;47.466;9.486;2024-03-17T01:13:30;96491.97;;;10.96;76.67
37892;BME280;45797;47.466;9.486;2024-03-17T01:18:56;96473.94;;;10.91;76.65
37892;BME280;45797;47.466;9.486;2024-03-17T01:24:18;96468.78;;;10.90;76.79
37892;BME280;45797;47.466;9.486;2024-03-17T01:29:43;96465.31;;;10.89;77.11
37892;BME280;45797;47.466;9.486;2024-03-17T01:35:13;96453.81;;;10.92;77.38
37892;BME280;45797;47.466;9.486;2024-03-17T01:40:36;96451.00;;;10.95;76.89
37892;BME280;45797;47.466;9.486;2024-03-17T01:45:59;96440.50;;;10.95;76.61
37892;BME280;45797;47.466;9.486;2024-03-17T01:51:20;96430.97;;;10.94;77.16
37892;BME280;45797;47.466;9.486;2024-03-17T01:56:52;96417.75;;;10.95;76.94
37892;BME280;45797;47.466;9.486;2024-03-17T02:02:14;96409.78;;;10.97;76.86
37892;BME280;45797;47.466;9.486;2024-03-17T02:07:35;96400.47;;;10.93;77.43
37892;BME280;45797;47.466;9.486;2024-03-17T02:13:12;96396.53;;;10.85;77.54
37892;BME280;45797;47.466;9.486;2024-03-17T02:19:02;96398.63;;;10.80;77.49
37892;BME280;45797;47.466;9.486;2024-03-17T02:24:29;96392.06;;;10.73;77.39
37892;BME280;45797;47.466;9.486;2024-03-17T02:29:50;96392.25;;;10.70;77.56
37892;BME280;45797;47.466;9.486;2024-03-17T02:35:11;96383.53;;;10.70;77.76
37892;BME280;45797;47.466;9.486;2024-03-17T02:40:38;96387.22;;;10.67;77.64
37892;BME280;45797;47.466;9.486;2024-03-17T02:46:04;96381.50;;;10.61;77.60
37892;BME280;45797;47.466;9.486;2024-03-17T02:51:24;96374.69;;;10.58;77.61
37892;BME280;45797;47.466;9.486;2024-03-17T02:56:51;96372.94;;;10.44;77.73
37892;BME280;45797;47.466;9.486;2024-03-17T03:02:12;96362.56;;;10.43;78.02
37892;BME280;45797;47.466;9.486;2024-03-17T03:07:35;96358.34;;;10.40;77.88
37892;BME280;45797;47.466;9.486;2024-03-17T03:12:57;96357.13;;;10.32;77.83
37892;BME280;45797;47.466;9.486;2024-03-17T03:18:17;96366.00;;;10.15;78.17
37892;BME280;45797;47.466;9.486;2024-03-17T03:23:39;96360.56;;;10.03;78.63
37892;BME280;45797;47.466;9.486;2024-03-17T03:29:00;96361.13;;;9.94;78.55
37892;BME280;45797;47.466;9.486;2024-03-17T03:34:21;96355.78;;;9.82;79.34
37892;BME280;45797;47.466;9.486;2024-03-17T03:39:44;96358.88;;;9.74;78.86
37892;BME280;45797;47.466;9.486;2024-03-17T03:45:06;96364.47;;;9.68;78.57
37892;BME280;45797;47.466;9.486;2024-03-17T03:50:31;96365.03;;;9.59;78.94
37892;BME280;45797;47.466;9.486;2024-03-17T03:55:54;96355.00;;;9.51;78.82
37892;BME280;45797;47.466;9.486;2024-03-17T04:01:17;96356.47;;;9.41;79.03
37892;BME280;45797;47.466;9.486;2024-03-17T04:06:43;96359.63;;;9.32;79.06
37892;BME280;45797;47.466;9.486;2024-03-17T04:12:04;96355.84;;;9.22;79.61
37892;BME280;45797;47.466;9.486;2024-03-17T04:17:25;96375.50;;;9.13;79.77
37892;BME280;45797;47.466;9.486;2024-03-17T04:23:03;96366.50;;;9.03;79.65
37892;BME280;45797;47.466;9.486;2024-03-17T04:28:26;96366.44;;;9.04;79.43
37892;BME280;45797;47.466;9.486;2024-03-17T04:33:46;96365.81;;;8.99;79.77
37892;BME280;45797;47.466;9.486;2024-03-17T04:39:15;96362.06;;;8.89;79.80
37892;BME280;45797;47.466;9.486;2024-03-17T04:44:43;96367.53;;;8.84;79.76
37892;BME280;45797;47.466;9.486;2024-03-17T04:50:04;96362.75;;;8.77;80.06
37892;BME280;45797;47.466;9.486;2024-03-17T04:55:26;96372.53;;;8.73;80.40
37892;BME280;45797;47.466;9.486;2024-03-17T05:01:22;96370.34;;;8.66;80.18
37892;BME280;45797;47.466;9.486;2024-03-17T05:07:09;96375.66;;;8.64;79.89
37892;BME280;45797;47.466;9.486;2024-03-17T05:12:29;96372.94;;;8.66;80.23
37892;BME280;45797;47.466;9.486;2024-03-17T05:18:01;96367.81;;;8.64;79.90
37892;BME280;45797;47.466;9.486;2024-03-17T05:23:30;96375.47;;;8.67;80.12
37892;BME280;45797;47.466;9.486;2024-03-17T05:28:51;96374.44;;;8.70;80.35
37892;BME280;45797;47.466;9.486;2024-03-17T05:34:11;96375.28;;;8.70;79.60
37892;BME280;45797;47.466;9.486;2024-03-17T05:39:34;96370.25;;;8.67;80.08
37892;BME280;45797;47.466;9.486;2024-03-17T05:44:55;96377.25;;;8.67;80.03
37892;BME280;45797;47.466;9.486;2024-03-17T05:50:15;96377.34;;;8.65;80.50
37892;BME280;45797;47.466;9.486;2024-03-17T05:55:46;96383.47;;;8.64;80.10
37892;BME280;45797;47.466;9.486;2024-03-17T06:01:14;96376.50;;;8.65;80.49
37892;BME280;45797;47.466;9.486;2024-03-17T06:06:35;96369.22;;;8.70;80.50
37892;BME280;45797;47.466;9.486;2024-03-17T06:11:56;96364.69;;;8.73;80.24
37892;BME280;45797;47.466;9.486;2024-03-17T06:17:16;96360.97;;;8.77;79.69
37892;BME280;45797;47.466;9.486;2024-03-17T06:22:41;96372.03;;;8.82;80.11
37892;BME280;45797;47.466;9.486;2024-03-17T06:28:03;96378.75;;;8.86;80.04
37892;BME280;45797;47.466;9.486;2024-03-17T06:33:31;96387.41;;;8.87;79.79
37892;BME280;45797;47.466;9.486;2024-03-17T06:38:52;96395.06;;;8.90;80.46
37892;BME280;45797;47.466;9.486;2024-03-17T06:44:14;96401.09;;;8.92;79.72
37892;BME280;45797;47.466;9.486;2024-03-17T06:49:35;96401.66;;;8.97;80.10
37892;BME280;45797;47.466;9.486;2024-03-17T06:54:56;96390.13;;;9.01;80.07
37892;BME280;45797;47.466;9.486;2024-03-17T07:00:28;96393.13;;;9.09;79.72
37892;BME280;45797;47.466;9.486;2024-03-17T07:05:57;96390.75;;;9.21;79.60
37892;BME280;45797;47.466;9.486;2024-03-17T07:11:18;96395.09;;;9.36;79.33
37892;BME280;45797;47.466;9.486;2024-03-17T07:16:40;96394.22;;;9.51;79.09
37892;BME280;45797;47.466;9.486;2024-03-17T07:22:01;96385.47;;;9.66;79.10
37892;BME280;45797;47.466;9.486;2024-03-17T07:27:26;96380.56;;;9.90;78.71
37892;BME280;45797;47.466;9.486;2024-03-17T07:33:12;96378.63;;;10.22;78.07
37892;BME280;45797;47.466;9.486;2024-03-17T07:38:40;96391.34;;;10.57;77.34
37892;BME280;45797;47.466;9.486;2024-03-17T07:44:02;96379.66;;;10.90;77.17
37892;BME280;45797;47.466;9.486;2024-03-17T07:49:49;96371.53;;;11.21;76.13
37892;BME280;45797;47.466;9.486;2024-03-17T07:55:18;96366.75;;;11.40;76.21
37892;BME280;45797;47.466;9.486;2024-03-17T08:00:42;96356.72;;;11.60;75.69
37892;BME280;45797;47.466;9.486;2024-03-17T08:06:04;96363.47;;;11.77;75.31
37892;BME280;45797;47.466;9.486;2024-03-17T08:11:29;96353.00;;;11.89;75.05
37892;BME280;45797;47.466;9.486;2024-03-17T08:16:50;96357.94;;;11.94;75.14
37892;BME280;45797;47.466;9.486;2024-03-17T08:22:17;96361.69;;;12.02;74.92
37892;BME280;45797;47.466;9.486;2024-03-17T08:27:38;96363.72;;;11.99;74.97
37892;BME280;45797;47.466;9.486;2024-03-17T08:33:01;96361.09;;;11.86;74.83
37892;BME280;45797;47.466;9.486;2024-03-17T08:38:37;96363.97;;;11.69;75.36
37892;BME280;45797;47.466;9.486;2024-03-17T08:44:09;96359.44;;;11.71;75.41
37892;BME280;45797;47.466;9.486;2024-03-17T08:49:33;96354.25;;;11.96;74.54
37892;BME280;45797;47.466;9.486;2024-03-17T08:54:57;96346.16;;;12.12;74.35
37892;BME280;45797;47.466;9.486;2024-03-17T09:00:35;96337.75;;;12.20;73.92
37892;BME280;45797;47.466;9.486;2024-03-17T09:05:56;96345.44;;;12.23;74.41
37892;BME280;45797;47.466;9.486;2024-03-17T09:11:18;96339.94;;;12.39;74.12
37892;BME280;45797;47.466;9.486;2024-03-17T09:16:44;96328.78;;;12.48;73.82
37892;BME280;45797;47.466;9.486;2024-03-17T09:22:05;96330.25;;;12.52;73.30
37892;BME280;45797;47.466;9.486;2024-03-17T09:27:42;96338.38;;;12.73;73.12
37892;BME280;45797;47.466;9.486;2024-03-17T09:33:03;96333.47;;;12.92;72.80
37892;BME280;45797;47.466;9.486;2024-03-17T09:38:35;96323.06;;;13.14;72.66
37892;BME280;45797;47.466;9.486;2024-03-17T09:43:57;96323.78;;;13.40;72.10
37892;BME280;45797;47.466;9.486;2024-03-17T09:49:34;96318.72;;;13.72;71.42
37892;BME280;45797;47.466;9.486;2024-03-17T09:55:01;96313.25;;;13.98;70.88
37892;BME280;45797;47.466;9.486;2024-03-17T10:00:22;96316.13;;;14.06;70.73
37892;BME280;45797;47.466;9.486;2024-03-17T10:05:43;96326.22;;;14.23;70.62
37892;BME280;45797;47.466;9.486;2024-03-17T10:11:05;96323.59;;;14.46;69.59
37892;BME280;45797;47.466;9.486;2024-03-17T10:16:43;96325.25;;;14.47;69.91
37892;BME280;45797;47.466;9.486;2024-03-17T10:22:04;96326.09;;;14.70;69.42
37892;BME280;45797;47.466;9.486;2024-03-17T10:27:43;96337.91;;;14.86;69.51
37892;BME280;45797;47.466;9.486;2024-03-17T10:33:04;96325.16;;;15.03;68.56
37892;BME280;45797;47.466;9.486;2024-03-17T10:38:33;96324.13;;;15.26;68.48
37892;BME280;45797;47.466;9.486;2024-03-17T10:43:59;96324.41;;;15.44;67.93
37892;BME280;45797;47.466;9.486;2024-03-17T10:49:21;96326.41;;;15.52;68.21
37892;BME280;45797;47.466;9.486;2024-03-17T10:54:53;96321.16;;;15.73;67.82
37892;BME280;45797;47.466;9.486;2024-03-17T11:00:20;96328.44;;;15.80;67.35
37892;BME280;45797;47.466;9.486;2024-03-17T11:05:59;96323.03;;;16.03;67.12
37892;BME280;45797;47.466;9.486;2024-03-17T11:11:36;96331.50;;;16.27;66.39
37892;BME280;45797;47.466;9.486;2024-03-17T11:17:17;96327.25;;;16.45;66.24
37892;BME280;45797;47.466;9.486;2024-03-17T11:22:44;96327.72;;;16.50;65.86
37892;BME280;45797;47.466;9.486;2024-03-17T11:28:10;96330.66;;;16.67;65.46
37892;BME280;45797;47.466;9.486;2024-03-17T11:33:51;96330.88;;;16.75;65.00
37892;BME280;45797;47.466;9.486;2024-03-17T11:39:12;96332.00;;;16.82;65.28
37892;BME280;45797;47.466;9.486;2024-03-17T11:44:55;96336.38;;;16.62;65.03
37892;BME280;45797;47.466;9.486;2024-03-17T11:50:16;96337.31;;;16.51;65.09
37892;BME280;45797;47.466;9.486;2024-03-17T11:55:53;96334.63;;;16.42;65.84
37892;BME280;45797;47.466;9.486;2024-03-17T12:01:39;96335.75;;;16.39;65.93
37892;BME280;45797;47.466;9.486;2024-03-17T12:07:27;96327.09;;;16.37;66.21
37892;BME280;45797;47.466;9.486;2024-03-17T12:12:50;96329.59;;;15.34;68.73
37892;BME280;45797;47.466;9.486;2024-03-17T12:18:20;96332.88;;;14.83;69.63
37892;BME280;45797;47.466;9.486;2024-03-17T12:23:43;96338.34;;;14.60;70.02
37892;BME280;45797;47.466;9.486;2024-03-17T12:29:23;96328.00;;;14.34;70.48
37892;BME280;45797;47.466;9.486;2024-03-17T12:35:14;96326.91;;;14.37;70.20
37892;BME280;45797;47.466;9.486;2024-03-17T12:40:46;96311.59;;;14.53;69.69
37892;BME280;45797;47.466;9.486;2024-03-17T12:46:11;96307.88;;;14.55;69.74
37892;BME280;45797;47.466;9.486;2024-03-17T12:51:45;96303.44;;;14.56;69.61
37892;BME280;45797;47.466;9.486;2024-03-17T12:57:15;96289.69;;;14.52;69.59
37892;BME280;45797;47.466;9.486;2024-03-17T13:03:27;96285.13;;;14.54;69.67
37892;BME280;45797;47.466;9.486;2024-03-17T13:08:54;96286.19;;;14.63;69.26
37892;BME280;45797;47.466;9.486;2024-03-17T13:14:16;96299.59;;;14.71;69.50
37892;BME280;45797;47.466;9.486;2024-03-17T13:19:47;96292.44;;;14.62;69.49
37892;BME280;45797;47.466;9.486;2024-03-17T13:25:09;96298.44;;;14.53;69.37
37892;BME280;45797;47.466;9.486;2024-03-17T13:30:33;96295.78;;;14.42;69.99
37892;BME280;45797;47.466;9.486;2024-03-17T13:36:21;96288.22;;;14.37;69.75
37892;BME280;45797;47.466;9.486;2024-03-17T13:41:48;96279.97;;;14.42;69.54
37892;BME280;45797;47.466;9.486;2024-03-17T13:47:19;96283.44;;;14.53;69.53
37892;BME280;45797;47.466;9.486;2024-03-17T13:52:40;96280.44;;;14.58;69.35
37892;BME280;45797;47.466;9.486;2024-03-17T13:58:01;96275.78;;;14.50;69.33
37892;BME280;45797;47.466;9.486;2024-03-17T14:03:23;96282.13;;;14.37;69.67
37892;BME280;45797;47.466;9.486;2024-03-17T14:08:45;96284.88;;;14.35;69.85
37892;BME280;45797;47.466;9.486;2024-03-17T14:14:21;96284.03;;;14.35;69.86
37892;BME280;45797;47.466;9.486;2024-03-17T14:19:42;96285.59;;;14.37;70.11
37892;BME280;45797;47.466;9.486;2024-03-17T14:25:09;96278.53;;;14.38;69.72
37892;BME280;45797;47.466;9.486;2024-03-17T14:30:34;96273.25;;;14.26;69.90
37892;BME280;45797;47.466;9.486;2024-03-17T14:35:58;96278.06;;;14.10;70.39
37892;BME280;45797;47.466;9.486;2024-03-17T14:41:20;96270.91;;;14.12;70.66
37892;BME280;45797;47.466;9.486;2024-03-17T14:46:51;96265.25;;;14.17;70.07
37892;BME280;45797;47.466;9.486;2024-03-17T14:52:12;96252.19;;;14.15;70.52
37892;BME280;45797;47.466;9.486;2024-03-17T14:57:32;96237.69;;;14.10;70.55
37892;BME280;45797;47.466;9.486;2024-03-17T15:02:53;96226.56;;;14.06;70.83
37892;BME280;45797;47.466;9.486;2024-03-17T15:08:20;96214.59;;;14.13;70.54
37892;BME280;45797;47.466;9.486;2024-03-17T15:13:41;96209.78;;;14.18;70.73
37892;BME280;45797;47.466;9.486;2024-03-17T15:19:16;96204.16;;;14.23;70.76
37892;BME280;45797;47.466;9.486;2024-03-17T15:24:36;96199.03;;;14.21;70.89
37892;BME280;45797;47.466;9.486;2024-03-17T15:29:59;96188.97;;;14.15;70.79
37892;BME280;45797;47.466;9.486;2024-03-17T15:35:21;96192.09;;;14.09;71.47
37892;BME280;45797;47.466;9.486;2024-03-17T15:40:49;96176.50;;;14.17;71.35
37892;BME280;45797;47.466;9.486;2024-03-17T15:46:18;96178.78;;;14.22;71.40
37892;BME280;45797;47.466;9.486;2024-03-17T15:51:38;96180.81;;;14.18;71.22
37892;BME280;45797;47.466;9.486;2024-03-17T15:57:01;96183.09;;;14.00;71.96
37892;BME280;45797;47.466;9.486;2024-03-17T16:02:25;96184.69;;;13.81;72.44
37892;BME280;45797;47.466;9.486;2024-03-17T16:07:53;96184.69;;;13.69;72.50
37892;BME280;45797;47.466;9.486;2024-03-17T16:13:23;96181.31;;;13.45;73.27
37892;BME280;45797;47.466;9.486;2024-03-17T16:18:44;96177.00;;;13.22;73.43
37892;BME280;45797;47.466;9.486;2024-03-17T16:24:18;96179.19;;;13.04;73.64
37892;BME280;45797;47.466;9.486;2024-03-17T16:29:41;96179.78;;;12.96;74.39
37892;BME280;45797;47.466;9.486;2024-03-17T16:35:05;96178.66;;;12.87;74.20
37892;BME280;45797;47.466;9.486;2024-03-17T16:40:26;96173.25;;;12.78;74.19
37892;BME280;45797;47.466;9.486;2024-03-17T16:46:03;96173.38;;;12.76;74.50
37892;BME280;45797;47.466;9.486;2024-03-17T16:51:29;96178.88;;;12.73;74.50
37892;BME280;45797;47.466;9.486;2024-03-17T16:56:53;96185.78;;;12.63;74.83
37892;BME280;45797;47.466;9.486;2024-03-17T17:02:21;96185.13;;;12.59;74.59
37892;BME280;45797;47.466;9.486;2024-03-17T17:07:43;96175.47;;;12.60;74.84
37892;BME280;45797;47.466;9.486;2024-03-17T17:13:09;96173.72;;;12.61;75.17
37892;BME280;45797;47.466;9.486;2024-03-17T17:24:17;96154.91;;;12.54;74.79
37892;BME280;45797;47.466;9.486;2024-03-17T17:29:49;96145.69;;;12.48;75.12
37892;BME280;45797;47.466;9.486;2024-03-17T17:35:15;96125.97;;;12.43;75.29
37892;BME280;45797;47.466;9.486;2024-03-17T17:40:39;96125.34;;;12.39;75.55
37892;BME280;45797;47.466;9.486;2024-03-17T17:46:02;96126.41;;;12.37;75.43
37892;BME280;45797;47.466;9.486;2024-03-17T17:51:23;96126.53;;;12.35;75.57
37892;BME280;45797;47.466;9.486;2024-03-17T17:56:45;96119.81;;;12.31;75.57
37892;BME280;45797;47.466;9.486;2024-03-17T18:02:07;96108.13;;;12.24;75.59
37892;BME280;45797;47.466;9.486;2024-03-17T18:07:27;96114.53;;;12.20;75.96
37892;BME280;45797;47.466;9.486;2024-03-17T18:12:50;96098.16;;;12.16;76.18
37892;BME280;45797;47.466;9.486;2024-03-17T18:18:15;96089.44;;;12.16;76.03
37892;BME280;45797;47.466;9.486;2024-03-17T18:23:39;96082.28;;;12.18;76.45
37892;BME280;45797;47.466;9.486;2024-03-17T18:29:10;96081.91;;;12.11;75.80
37892;BME280;45797;47.466;9.486;2024-03-17T18:34:33;96081.06;;;12.11;76.19
37892;BME280;45797;47.466;9.486;2024-03-17T18:39:56;96091.69;;;12.09;76.16
37892;BME280;45797;47.466;9.486;2024-03-17T18:45:21;96095.25;;;12.08;75.99
37892;BME280;45797;47.466;9.486;2024-03-17T18:50:46;96101.09;;;12.12;76.04
37892;BME280;45797;47.466;9.486;2024-03-17T18:56:28;96107.53;;;12.08;76.19
37892;BME280;45797;47.466;9.486;2024-03-17T19:01:51;96101.47;;;12.07;76.25
37892;BME280;45797;47.466;9.486;2024-03-17T19:07:26;96103.97;;;12.09;76.63
37892;BME280;45797;47.466;9.486;2024-03-17T19:12:50;96112.56;;;12.11;76.16
37892;BME280;45797;47.466;9.486;2024-03-17T19:18:19;96122.34;;;12.09;76.50
37892;BME280;45797;47.466;9.486;2024-03-17T19:23:41;96121.28;;;12.11;76.65
37892;BME280;45797;47.466;9.486;2024-03-17T19:29:09;96115.31;;;12.09;76.55
37892;BME280;45797;47.466;9.486;2024-03-17T19:34:40;96121.50;;;12.08;76.55
37892;BME280;45797;47.466;9.486;2024-03-17T19:40:01;96124.03;;;12.10;76.77
37892;BME280;45797;47.466;9.486;2024-03-17T19:45:22;96124.03;;;12.10;76.64
37892;BME280;45797;47.466;9.486;2024-03-17T19:50:43;96109.94;;;12.11;76.32
37892;BME280;45797;47.466;9.486;2024-03-17T19:56:16;96109.94;;;12.11;76.87
37892;BME280;45797;47.466;9.486;2024-03-17T20:01:37;96117.69;;;12.12;77.01
37892;BME280;45797;47.466;9.486;2024-03-17T20:06:59;96120.25;;;12.14;76.62
37892;BME280;45797;47.466;9.486;2024-03-17T20:12:20;96112.25;;;12.15;77.22
37892;BME280;45797;47.466;9.486;2024-03-17T20:17:42;96115.72;;;12.16;76.85
37892;BME280;45797;47.466;9.486;2024-03-17T20:23:12;96111.28;;;12.16;77.17
37892;BME280;45797;47.466;9.486;2024-03-17T20:28:33;96110.22;;;12.19;77.08
37892;BME280;45797;47.466;9.486;2024-03-17T20:34:05;96099.72;;;12.19;76.93
37892;BME280;45797;47.466;9.486;2024-03-17T20:39:29;96095.19;;;12.21;77.07
37892;BME280;45797;47.466;9.486;2024-03-17T20:45:07;96109.28;;;12.20;77.02
37892;BME280;45797;47.466;9.486;2024-03-17T20:50:29;96115.84;;;12.01;76.71
37892;BME280;45797;47.466;9.486;2024-03-17T20:55:53;96099.94;;;11.92;77.73
37892;BME280;45797;47.466;9.486;2024-03-17T21:01:21;96089.56;;;11.90;77.79
37892;BME280;45797;47.466;9.486;2024-03-17T21:06:46;96087.66;;;11.92;77.64
37892;BME280;45797;47.466;9.486;2024-03-17T21:12:09;96083.25;;;11.93;77.64
37892;BME280;45797;47.466;9.486;2024-03-17T21:17:30;96077.06;;;11.94;77.71
37892;BME280;45797;47.466;9.486;2024-03-17T21:23:10;96060.44;;;11.93;77.72
37892;BME280;45797;47.466;9.486;2024-03-17T21:28:30;96055.00;;;11.96;77.84
37892;BME280;45797;47.466;9.486;2024-03-17T21:33:59;96043.66;;;11.96;77.59
37892;BME280;45797;47.466;9.486;2024-03-17T21:39:20;96020.88;;;11.96;77.55
37892;BME280;45797;47.466;9.486;2024-03-17T21:44:43;96018.84;;;12.00;77.21
37892;BME280;45797;47.466;9.486;2024-03-17T21:50:05;96022.31;;;12.00;77.12
37892;BME280;45797;47.466;9.486;2024-03-17T21:55:26;96040.53;;;11.91;77.60
37892;BME280;45797;47.466;9.486;2024-03-17T22:01:07;96022.31;;;11.77;77.55
37892;BME280;45797;47.466;9.486;2024-03-17T22:06:30;96013.81;;;11.73;77.76
37892;BME280;45797;47.466;9.486;2024-03-17T22:11:51;96014.03;;;11.70;77.98
37892;BME280;45797;47.466;9.486;2024-03-17T22:17:13;96006.81;;;11.61;78.07
37892;BME280;45797;47.466;9.486;2024-03-17T22:22:41;96010.41;;;11.60;78.31
37892;BME280;45797;47.466;9.486;2024-03-17T22:28:03;96016.59;;;11.59;78.00
37892;BME280;45797;47.466;9.486;2024-03-17T22:33:28;96021.13;;;11.57;77.97
37892;BME280;45797;47.466;9.486;2024-03-17T22:38:50;96015.38;;;11.52;78.29
37892;BME280;45797;47.466;9.486;2024-03-17T22:44:17;96018.94;;;11.51;78.25
37892;BME280;45797;47.466;9.486;2024-03-17T22:49:40;96018.00;;;11.52;78.12
37892;BME280;45797;47.466;9.486;2024-03-17T22:55:00;96010.13;;;11.52;78.35
37892;BME280;45797;47.466;9.486;2024-03-17T23:00:21;95999.63;;;11.52;78.37
37892;BME280;45797;47.466;9.486;2024-03-17T23:06:03;95997.59;;;11.55;78.00
37892;BME280;45797;47.466;9.486;2024-03-17T23:11:26;95994.91;;;11.57;78.28
37892;BME280;45797;47.466;9.486;2024-03-17T23:16:47;95995.50;;;11.60;78.16
37892;BME280;45797;47.466;9.486;2024-03-17T23:22:09;95991.09;;;11.61;78.22
37892;BME280;45797;47.466;9.486;2024-03-17T23:27:41;95979.53;;;11.63;78.21
37892;BME280;45797;47.466;9.486;2024-03-17T23:33:27;95969.88;;;11.64;78.20
37892;BME280;45797;47.466;9.486;2024-03-17T23:38:49;95960.22;;;11.64;77.76
37892;BME280;45797;47.466;9.486;2024-03-17T23:44:12;95961.16;;;11.63;78.10
37892;BME280;45797;47.466;9.486;2024-03-17T23:49:38;95954.13;;;11.64;78.05
37892;BME280;45797;47.466;9.486;2024-03-17T23:55:07;95967.03;;;11.67;78.35
